首页
METAR-TAF:

METAR-TAF

机场 :

Delta Junction / Fort Greely, 阿拉斯加州, 美国

纬度: 64-00N, 经度: 145-44W, 海拔: 389米

当前天气观测

该预报发布于1小时和7分钟前的08:53 UTC
风速5节,风向北转西北
温度 17°C
湿度 55%
气压 1013 hPa
能見度: 16.1公里
多云层高于9000英尺

METAR: PABI 190853Z AUTO 33005KT 10SM BKN090 17/08 A2990 RMK AO2 SLP121 60002 T01670078 402440128 51016 TSNO $

时间: 02:00 (10:00 UTC)

预报

该预报发布于8小时和0分钟前的02:00 UTC
预报有效从19日的 02点(UTC)到 20日的 04点(UTC)
风速9节,风向
能见度10公里或以上
散云层高于6000英尺, 积雨云.
多云层高于12000英尺
附近有雷暴
短暂存在
从 19日的 02点(UTC)到 19日的 04点(UTC)
能見度: 8000
多云层高于6000英尺, 积雨云.
雷暴, 小雨
成为
从 19日的 06点(UTC)到 19日的 07点(UTC)
风速6节,风向多变
能见度10公里或以上
散云层高于6000英尺
成为
从 19日的 12点(UTC)到 19日的 13点(UTC)
风速9节,风向西转西南
能见度10公里或以上
散云层高于4000英尺
附近有阵雨
成为
从 19日的 15点(UTC)到 19日的 16点(UTC)
风速9节,风向西转西北
能見度: 1914
散云层高于3000英尺, 积雨云.
多云层高于6000英尺
小阵雨, 附近有雷暴,

TAF: PABI 190200Z 1902/2004 01009KT 9999 VCTS SCT060CB BKN120 QNH2990INS TEMPO 1902/1904 8000 -TSRA BKN060CB BECMG 1906/1907 VRB06KT 9999 NSW SCT060 QNH2995INS BECMG 1912/1913 25009KT 9999 VCSH SCT040 QNH2991INS BECMG 1915/1916 29009KT 9000 -SHRA VCTS SCT030CB BKN060 QNH2988INS TX22/1902Z TN15/1915Z LAST NO AMDS AFT 1905 NEXT 1914

超过4000个机场的气象观测和天气预报(METAR&TAF报告)。

可查询的气象台以黄色和红色小点在地图上表示。

将鼠标移到小点上方,可查看气象台名称。

然后点击查看天气观测和预报。

如需切换地图:点击带黑十字的绿色按钮放大地图;点击带横线的绿色按钮缩小地图;或者点击绿色箭头查看邻近地区的地图。


METAR-TAF: